createdAt,value
2018-07-16T00:00:13.085Z,16.66
2018-07-16T00:02:40.333Z,16.63
2018-07-16T00:05:08.706Z,16.59
2018-07-16T00:07:36.010Z,16.62
2018-07-16T00:10:03.366Z,16.59
2018-07-16T00:12:30.650Z,16.59
2018-07-16T00:14:57.918Z,16.61
2018-07-16T00:20:15.226Z,16.53
2018-07-16T00:22:42.698Z,16.56
2018-07-16T00:25:09.975Z,16.48
2018-07-16T00:27:37.203Z,16.34
2018-07-16T00:30:04.684Z,16.14
2018-07-16T00:32:31.914Z,15.92
2018-07-16T00:34:59.185Z,15.83
2018-07-16T00:37:26.425Z,15.78
2018-07-16T00:39:53.720Z,15.74
2018-07-16T00:42:20.978Z,15.78
2018-07-16T00:44:48.214Z,15.80
2018-07-16T00:47:15.539Z,15.83
2018-07-16T00:49:42.742Z,15.79
2018-07-16T00:52:10.066Z,15.73
2018-07-16T00:54:37.301Z,15.67
2018-07-16T00:57:04.738Z,15.70
2018-07-16T00:59:31.978Z,15.72
2018-07-16T01:01:59.218Z,15.68
2018-07-16T01:04:26.446Z,15.72
2018-07-16T01:06:53.747Z,15.70
2018-07-16T01:09:21.021Z,15.68
2018-07-16T01:11:48.433Z,15.66
2018-07-16T01:14:15.678Z,15.64
2018-07-16T01:16:42.938Z,15.56
2018-07-16T01:19:10.161Z,15.46
2018-07-16T01:21:37.437Z,15.40
2018-07-16T01:24:04.931Z,15.35
2018-07-16T01:26:32.179Z,15.41
2018-07-16T01:28:59.435Z,15.41
2018-07-16T01:31:26.670Z,15.35
2018-07-16T01:33:53.930Z,15.32
2018-07-16T01:36:21.181Z,15.33
2018-07-16T01:38:48.443Z,15.23
2018-07-16T01:41:15.687Z,15.06
2018-07-16T01:43:42.978Z,15.05
2018-07-16T01:46:10.300Z,15.02
2018-07-16T01:48:37.525Z,15.04
2018-07-16T01:51:04.775Z,15.07
2018-07-16T01:53:32.019Z,15.06
2018-07-16T01:55:59.312Z,15.01
2018-07-16T01:58:26.537Z,14.91
2018-07-16T02:00:57.650Z,14.88
2018-07-16T02:03:27.533Z,14.88
2018-07-16T02:05:54.800Z,14.92
2018-07-16T02:08:22.765Z,14.98
2018-07-16T02:10:50.089Z,15.01
2018-07-16T02:13:17.455Z,14.91
2018-07-16T02:15:44.778Z,14.94
2018-07-16T02:18:12.684Z,14.95
2018-07-16T02:20:39.926Z,14.97
2018-07-16T02:23:07.194Z,14.96
2018-07-16T02:25:34.438Z,14.89
2018-07-16T02:28:01.699Z,14.82
2018-07-16T02:30:28.982Z,14.79
2018-07-16T02:32:56.211Z,14.75
2018-07-16T02:35:23.479Z,14.74
2018-07-16T02:37:50.717Z,14.73
2018-07-16T02:40:18.046Z,14.77
2018-07-16T02:42:45.274Z,14.78
2018-07-16T02:45:12.577Z,14.76
2018-07-16T02:47:40.039Z,14.76
2018-07-16T02:50:07.706Z,14.69
2018-07-16T02:52:34.983Z,14.63
2018-07-16T02:55:02.288Z,14.55
2018-07-16T02:57:29.588Z,14.45
2018-07-16T02:59:56.847Z,14.29
2018-07-16T03:02:24.188Z,14.26
2018-07-16T03:04:51.493Z,14.21
2018-07-16T03:07:18.800Z,14.16
2018-07-16T03:09:46.943Z,14.15
2018-07-16T03:12:14.361Z,14.20
2018-07-16T03:14:43.622Z,14.27
2018-07-16T03:17:11.118Z,14.34
2018-07-16T03:19:39.961Z,14.37
2018-07-16T03:22:09.014Z,14.36
2018-07-16T03:24:37.680Z,14.39
2018-07-16T03:27:05.067Z,14.38
2018-07-16T03:29:33.109Z,14.28
2018-07-16T03:32:00.449Z,14.14
2018-07-16T03:34:28.518Z,14.09
2018-07-16T03:36:55.896Z,14.10
2018-07-16T03:39:23.265Z,14.14
2018-07-16T03:41:50.587Z,14.24
2018-07-16T03:44:17.897Z,14.30
2018-07-16T03:46:45.299Z,14.32
2018-07-16T03:49:12.693Z,14.31
2018-07-16T03:51:40.015Z,14.33
2018-07-16T03:54:07.326Z,14.25
2018-07-16T03:56:35.607Z,14.26
2018-07-16T03:59:02.974Z,14.30
2018-07-16T04:01:30.401Z,14.30
2018-07-16T04:03:57.763Z,14.28
2018-07-16T04:06:25.044Z,14.36
2018-07-16T04:08:52.374Z,14.40
2018-07-16T04:11:19.712Z,14.49
2018-07-16T04:13:47.100Z,14.60
2018-07-16T04:16:14.960Z,14.73
2018-07-16T04:18:42.325Z,14.88
2018-07-16T04:21:09.645Z,15.01
2018-07-16T04:23:37.064Z,15.15
2018-07-16T04:26:04.405Z,15.30
2018-07-16T04:28:31.746Z,15.45
2018-07-16T04:30:59.476Z,15.55
2018-07-16T04:33:27.307Z,15.60
2018-07-16T04:35:54.621Z,15.57
2018-07-16T04:38:22.046Z,15.60
2018-07-16T04:40:49.550Z,15.66
2018-07-16T04:43:16.929Z,15.72
2018-07-16T04:45:44.583Z,15.78
2018-07-16T04:48:11.910Z,15.81
2018-07-16T04:50:39.265Z,15.84
2018-07-16T04:53:06.628Z,15.88
2018-07-16T04:55:34.042Z,16.03
2018-07-16T04:58:01.393Z,16.24
2018-07-16T05:00:29.393Z,16.49
2018-07-16T05:02:56.740Z,16.67
2018-07-16T05:05:24.107Z,16.77
2018-07-16T05:07:51.446Z,16.87
2018-07-16T05:10:18.757Z,16.97
2018-07-16T05:12:46.067Z,17.12
2018-07-16T05:15:13.652Z,17.29
2018-07-16T05:17:40.950Z,17.45
2018-07-16T05:20:08.297Z,17.51
2018-07-16T05:22:35.621Z,17.61
2018-07-16T05:25:03.575Z,17.71
2018-07-16T05:27:30.976Z,17.76
2018-07-16T05:29:58.331Z,17.84
2018-07-16T05:32:25.899Z,17.86
2018-07-16T05:34:53.089Z,17.88
2018-07-16T05:37:20.444Z,18.00
2018-07-16T05:39:47.731Z,18.01
2018-07-16T05:42:16.482Z,17.98
2018-07-16T05:44:43.817Z,17.97
2018-07-16T05:47:11.387Z,18.03
2018-07-16T05:49:38.662Z,18.13
2018-07-16T05:52:06.067Z,18.26
2018-07-16T05:54:33.549Z,18.42
2018-07-16T05:57:00.924Z,18.46
2018-07-16T05:59:28.226Z,18.46
2018-07-16T06:01:55.510Z,18.43
2018-07-16T06:04:23.606Z,18.36
2018-07-16T06:06:50.888Z,18.35
2018-07-16T06:09:18.217Z,18.42
2018-07-16T06:11:45.577Z,18.50
2018-07-16T06:14:13.026Z,18.79
2018-07-16T06:16:40.427Z,19.20
2018-07-16T06:19:07.698Z,19.43
2018-07-16T06:21:34.980Z,19.37
2018-07-16T06:24:02.382Z,19.35
2018-07-16T06:26:29.673Z,19.49
2018-07-16T06:28:57.026Z,19.83
2018-07-16T06:31:24.387Z,20.10
2018-07-16T06:33:51.746Z,20.51
2018-07-16T06:36:19.132Z,21.00
2018-07-16T06:38:46.577Z,21.39
2018-07-16T06:41:14.303Z,21.72
2018-07-16T06:43:41.792Z,21.93
2018-07-16T06:46:09.185Z,22.16
2018-07-16T06:48:37.267Z,22.44
2018-07-16T06:51:05.326Z,22.69
2018-07-16T06:53:32.716Z,23.12
2018-07-16T06:56:00.070Z,23.26
2018-07-16T06:58:27.394Z,23.37
2018-07-16T07:00:54.766Z,22.96
2018-07-16T07:03:22.163Z,22.75
2018-07-16T07:05:49.534Z,22.71
2018-07-16T07:08:16.751Z,22.53
2018-07-16T07:10:44.080Z,22.43
2018-07-16T07:13:12.172Z,22.37
2018-07-16T07:15:40.127Z,22.12
2018-07-16T07:18:07.490Z,22.00
2018-07-16T07:20:34.863Z,22.00
2018-07-16T07:23:02.233Z,21.99
2018-07-16T07:25:29.629Z,22.09
2018-07-16T07:27:57.056Z,22.27
2018-07-16T07:30:24.455Z,22.53
2018-07-16T07:32:51.902Z,22.73
2018-07-16T07:35:20.064Z,23.07
2018-07-16T07:37:47.607Z,23.38
2018-07-16T07:40:15.667Z,23.60
2018-07-16T07:42:43.072Z,23.83
2018-07-16T07:45:10.618Z,24.12
2018-07-16T07:47:39.119Z,24.49
2018-07-16T07:50:06.515Z,24.53
2018-07-16T07:52:34.425Z,24.50
2018-07-16T07:55:02.099Z,24.97
2018-07-16T07:57:29.241Z,24.65
2018-07-16T07:59:56.685Z,24.75
2018-07-16T08:02:24.065Z,24.78
2018-07-16T08:04:52.055Z,24.81
2018-07-16T08:07:19.363Z,25.19
2018-07-16T08:09:46.829Z,25.18
2018-07-16T08:12:14.440Z,25.33
2018-07-16T08:14:43.102Z,25.51
2018-07-16T08:17:10.624Z,25.63
2018-07-16T08:19:37.946Z,25.77
2018-07-16T08:22:05.292Z,25.62
2018-07-16T08:24:32.607Z,25.95
2018-07-16T08:27:00.111Z,26.27
2018-07-16T08:29:27.436Z,26.16
2018-07-16T08:32:01.493Z,27.01
2018-07-16T08:34:28.854Z,27.15
2018-07-16T08:36:56.195Z,26.88
2018-07-16T08:39:23.602Z,27.42
2018-07-16T08:41:50.909Z,27.64
2018-07-16T08:44:18.255Z,28.30
2018-07-16T08:46:45.562Z,28.36
2018-07-16T08:49:13.025Z,28.48
2018-07-16T08:51:40.332Z,28.88
2018-07-16T08:54:07.666Z,28.87
2018-07-16T08:56:35.020Z,28.78
2018-07-16T08:59:02.969Z,28.89
2018-07-16T09:01:30.294Z,29.26
2018-07-16T09:03:57.601Z,29.37
2018-07-16T09:06:24.908Z,29.27
2018-07-16T09:08:52.227Z,28.58
2018-07-16T09:11:19.634Z,29.29
2018-07-16T09:13:46.987Z,29.48
2018-07-16T09:16:15.020Z,29.76
2018-07-16T09:18:42.331Z,29.84
2018-07-16T09:21:10.368Z,29.14
2018-07-16T09:23:37.706Z,29.31
2018-07-16T09:26:05.105Z,29.52
2018-07-16T09:28:32.388Z,29.46
2018-07-16T09:31:00.594Z,29.55
2018-07-16T09:33:27.867Z,29.62
2018-07-16T09:35:55.338Z,30.00
2018-07-16T09:38:22.914Z,29.25
2018-07-16T09:40:50.327Z,29.13
2018-07-16T09:43:17.630Z,29.09
2018-07-16T09:45:45.104Z,29.39
2018-07-16T09:48:12.474Z,29.34
2018-07-16T09:50:39.786Z,28.93
2018-07-16T09:53:07.191Z,29.14
2018-07-16T09:55:34.503Z,29.12
2018-07-16T09:58:01.931Z,29.24
2018-07-16T10:00:34.750Z,29.91
2018-07-16T10:03:04.355Z,30.45
2018-07-16T10:05:31.679Z,29.86
2018-07-16T10:07:58.992Z,29.77
2018-07-16T10:10:26.337Z,29.79
2018-07-16T10:12:53.700Z,29.79
2018-07-16T10:15:21.028Z,30.11
2018-07-16T10:17:48.365Z,30.59
2018-07-16T10:20:16.345Z,30.93
2018-07-16T10:22:43.693Z,30.28
2018-07-16T10:25:11.083Z,29.57
2018-07-16T10:27:38.480Z,29.78
2018-07-16T10:30:08.109Z,30.12
2018-07-16T10:32:35.590Z,29.28
2018-07-16T10:35:02.954Z,28.53
2018-07-16T10:37:30.370Z,28.47
2018-07-16T10:39:57.696Z,28.73
2018-07-16T10:42:25.132Z,28.45
2018-07-16T10:44:52.527Z,28.17
2018-07-16T10:47:19.910Z,28.65
2018-07-16T10:49:47.331Z,29.18
2018-07-16T10:52:14.711Z,29.26
2018-07-16T10:54:43.580Z,28.85
2018-07-16T10:57:12.050Z,29.61
2018-07-16T10:59:39.439Z,30.16
2018-07-16T11:02:06.708Z,30.01
2018-07-16T11:04:34.040Z,29.12
2018-07-16T11:07:02.326Z,28.79
2018-07-16T11:09:29.634Z,28.66
2018-07-16T11:11:56.945Z,28.39
2018-07-16T11:14:24.276Z,27.83
2018-07-16T11:16:51.577Z,27.95
2018-07-16T11:19:18.899Z,27.68
2018-07-16T11:21:46.274Z,27.83
2018-07-16T11:24:13.786Z,27.92
2018-07-16T11:26:41.087Z,28.40
2018-07-16T11:29:08.490Z,28.58
2018-07-16T11:31:35.845Z,29.25
2018-07-16T11:34:03.190Z,30.03
2018-07-16T11:36:30.532Z,30.53
2018-07-16T11:38:57.866Z,30.19
2018-07-16T11:41:25.243Z,30.80
2018-07-16T11:43:52.546Z,32.00
2018-07-16T11:46:19.967Z,31.85
2018-07-16T11:48:47.183Z,31.06
2018-07-16T11:51:16.539Z,30.63
2018-07-16T11:53:43.852Z,31.07
2018-07-16T11:56:11.309Z,30.37
2018-07-16T11:58:38.636Z,29.75
2018-07-16T12:01:05.951Z,29.16
2018-07-16T12:03:33.310Z,28.88
2018-07-16T12:06:03.564Z,28.43
2018-07-16T12:08:30.931Z,28.59
2018-07-16T12:10:58.272Z,29.26
2018-07-16T12:13:25.625Z,30.31
2018-07-16T12:15:52.949Z,29.78
2018-07-16T12:18:20.276Z,29.53
2018-07-16T12:20:47.586Z,29.56
2018-07-16T12:23:15.016Z,29.62
2018-07-16T12:25:42.314Z,29.32
2018-07-16T12:28:10.185Z,28.97
2018-07-16T12:30:37.459Z,28.63
2018-07-16T12:33:05.472Z,28.58
2018-07-16T12:35:32.787Z,29.01
2018-07-16T12:38:00.705Z,29.56
2018-07-16T12:40:28.048Z,29.65
2018-07-16T12:42:55.943Z,29.40
2018-07-16T12:45:29.995Z,29.15
2018-07-16T12:47:57.445Z,29.07
2018-07-16T12:50:24.749Z,28.81
2018-07-16T12:52:52.077Z,28.79
2018-07-16T12:55:19.362Z,28.64
2018-07-16T12:57:46.717Z,28.40
2018-07-16T13:00:14.078Z,28.11
2018-07-16T13:02:41.670Z,28.00
2018-07-16T13:05:08.995Z,27.30
2018-07-16T13:07:36.315Z,26.43
2018-07-16T13:10:03.785Z,26.11
2018-07-16T13:12:31.089Z,25.66
2018-07-16T13:14:58.421Z,25.59
2018-07-16T13:17:25.720Z,25.62
2018-07-16T13:19:53.099Z,25.70
2018-07-16T13:22:20.434Z,25.58
2018-07-16T13:24:47.790Z,25.56
2018-07-16T13:27:15.130Z,25.54
2018-07-16T13:29:42.634Z,25.21
2018-07-16T13:32:10.120Z,24.92
2018-07-16T13:34:37.446Z,24.84
2018-07-16T13:37:04.957Z,24.61
2018-07-16T13:39:32.312Z,24.55
2018-07-16T13:41:59.655Z,24.46
2018-07-16T13:44:26.992Z,24.48
2018-07-16T13:46:54.304Z,24.45
2018-07-16T13:49:21.589Z,24.52
2018-07-16T13:51:48.977Z,24.41
2018-07-16T13:54:17.976Z,24.39
2018-07-16T13:56:45.310Z,24.40
2018-07-16T13:59:12.687Z,24.41
2018-07-16T14:01:40.026Z,24.37
2018-07-16T14:04:07.626Z,24.40
2018-07-16T14:06:34.928Z,24.40
2018-07-16T14:09:02.347Z,24.39
2018-07-16T14:11:29.669Z,24.46
2018-07-16T14:13:56.999Z,24.59
2018-07-16T14:16:24.343Z,24.61
2018-07-16T14:18:51.654Z,24.74
2018-07-16T14:21:18.967Z,24.87
2018-07-16T14:23:46.286Z,24.93
2018-07-16T14:26:13.636Z,25.01
2018-07-16T14:28:40.985Z,25.04
2018-07-16T14:31:08.320Z,25.23
2018-07-16T14:33:35.732Z,25.25
2018-07-16T14:36:03.083Z,25.27
2018-07-16T14:38:30.373Z,25.27
2018-07-16T14:40:58.443Z,25.16
2018-07-16T14:43:25.811Z,25.19
2018-07-16T14:45:53.180Z,25.09
2018-07-16T14:48:20.532Z,25.17
2018-07-16T14:50:47.970Z,25.16
2018-07-16T14:53:17.497Z,25.17
2018-07-16T14:55:44.832Z,25.16
2018-07-16T14:58:12.765Z,25.26
2018-07-16T15:00:40.102Z,25.26
2018-07-16T15:03:07.531Z,25.30
2018-07-16T15:05:35.411Z,25.30
2018-07-16T15:08:03.364Z,25.38
2018-07-16T15:10:30.725Z,25.38
2018-07-16T15:12:58.528Z,25.43
2018-07-16T15:15:26.799Z,25.46
2018-07-16T15:17:54.155Z,25.61
2018-07-16T15:20:21.514Z,25.65
2018-07-16T15:22:48.730Z,25.77
2018-07-16T15:25:16.143Z,25.81
2018-07-16T15:27:43.397Z,25.92
2018-07-16T15:30:10.646Z,25.95
2018-07-16T15:32:37.860Z,26.09
2018-07-16T15:35:05.153Z,26.14
2018-07-16T15:37:32.406Z,26.11
2018-07-16T15:39:59.638Z,26.06
2018-07-16T15:42:26.838Z,26.05
2018-07-16T15:44:54.054Z,26.23
2018-07-16T15:47:21.423Z,25.92
2018-07-16T15:49:48.674Z,25.58
2018-07-16T15:52:15.974Z,25.62
2018-07-16T15:54:43.308Z,25.78
2018-07-16T15:57:10.652Z,25.67
2018-07-16T15:59:38.007Z,25.62
2018-07-16T16:02:05.354Z,25.71
2018-07-16T16:04:33.207Z,25.80
2018-07-16T16:07:00.550Z,26.04
2018-07-16T16:09:27.913Z,26.04
2018-07-16T16:11:55.289Z,25.90
2018-07-16T16:14:22.618Z,25.73
2018-07-16T16:16:49.945Z,25.70
2018-07-16T16:19:17.273Z,25.71
2018-07-16T16:21:44.674Z,25.69
2018-07-16T16:24:12.031Z,25.55
2018-07-16T16:26:39.421Z,25.66
2018-07-16T16:29:06.827Z,25.79
2018-07-16T16:31:34.174Z,25.87
2018-07-16T16:34:02.117Z,25.99
2018-07-16T16:36:29.524Z,26.04
2018-07-16T16:38:56.912Z,26.05
2018-07-16T16:41:24.294Z,26.01
2018-07-16T16:43:51.590Z,25.97
2018-07-16T16:46:19.331Z,25.98
2018-07-16T16:48:47.478Z,25.99
2018-07-16T16:51:15.361Z,25.93
2018-07-16T16:53:43.218Z,25.82
2018-07-16T16:56:10.602Z,25.84
2018-07-16T16:58:37.925Z,25.84
2018-07-16T17:01:05.287Z,25.81
2018-07-16T17:03:32.639Z,25.69
2018-07-16T17:06:00.007Z,25.61
2018-07-16T17:08:27.395Z,25.54
2018-07-16T17:10:54.761Z,25.52
2018-07-16T17:13:22.146Z,25.53
2018-07-16T17:15:49.530Z,25.38
2018-07-16T17:18:16.872Z,25.31
2018-07-16T17:20:44.235Z,25.25
2018-07-16T17:23:11.625Z,25.25
2018-07-16T17:25:38.923Z,25.22
2018-07-16T17:28:06.242Z,25.16
2018-07-16T17:30:33.665Z,25.16
2018-07-16T17:33:02.058Z,25.08
2018-07-16T17:35:29.944Z,25.01
2018-07-16T17:37:57.316Z,25.09
2018-07-16T17:40:24.752Z,25.05
2018-07-16T17:42:52.649Z,25.09
2018-07-16T17:45:20.763Z,25.14
2018-07-16T17:47:48.095Z,25.11
2018-07-16T17:50:16.204Z,24.95
2018-07-16T17:52:43.679Z,24.86
2018-07-16T17:55:11.179Z,24.77
2018-07-16T17:57:38.520Z,24.69
2018-07-16T18:00:05.901Z,24.67
2018-07-16T18:02:33.476Z,24.72
2018-07-16T18:05:00.875Z,24.72
2018-07-16T18:07:32.453Z,24.68
2018-07-16T18:10:00.130Z,24.63
2018-07-16T18:12:27.764Z,24.53
2018-07-16T18:14:55.351Z,24.61
2018-07-16T18:17:22.858Z,24.49
2018-07-16T18:19:50.218Z,24.43
2018-07-16T18:22:18.165Z,24.42
2018-07-16T18:24:45.762Z,24.32
2018-07-16T18:27:13.233Z,24.18
2018-07-16T18:29:40.757Z,23.99
2018-07-16T18:32:08.992Z,23.88
2018-07-16T18:34:37.375Z,23.75
2018-07-16T18:37:05.251Z,23.63
2018-07-16T18:39:32.748Z,23.59
2018-07-16T18:42:00.450Z,23.45
2018-07-16T18:44:28.095Z,23.30
2018-07-16T18:46:56.226Z,23.21
2018-07-16T18:49:23.996Z,23.11
2018-07-16T18:51:51.462Z,23.00
2018-07-16T18:54:19.030Z,22.93
2018-07-16T18:56:47.798Z,22.91
2018-07-16T18:59:15.321Z,22.89
2018-07-16T19:01:42.791Z,22.92
2018-07-16T19:04:11.203Z,22.87
2018-07-16T19:06:40.822Z,22.73
2018-07-16T19:09:09.434Z,22.66
2018-07-16T19:11:38.871Z,22.56
2018-07-16T19:14:06.557Z,22.43
2018-07-16T19:16:35.197Z,22.31
2018-07-16T19:19:03.427Z,22.25
2018-07-16T19:21:30.874Z,22.22
2018-07-16T19:23:58.374Z,22.10
2018-07-16T19:26:25.833Z,22.05
2018-07-16T19:28:53.333Z,21.97
2018-07-16T19:31:22.162Z,21.90
2018-07-16T19:33:50.945Z,21.86
2018-07-16T19:36:19.084Z,21.74
2018-07-16T19:38:46.709Z,21.65
2018-07-16T19:41:14.155Z,21.61
2018-07-16T19:43:41.600Z,21.59
2018-07-16T19:46:10.219Z,21.53
2018-07-16T19:48:37.817Z,21.45
2018-07-16T19:51:06.376Z,21.35
2018-07-16T19:53:34.808Z,21.21
2018-07-16T19:56:02.992Z,21.04
2018-07-16T19:58:31.521Z,20.94
2018-07-16T20:00:59.860Z,20.92
2018-07-16T20:03:28.170Z,20.94
2018-07-16T20:05:55.715Z,20.84
2018-07-16T20:08:23.252Z,20.76
2018-07-16T20:10:50.629Z,20.66
2018-07-16T20:13:18.161Z,20.56
2018-07-16T20:15:45.672Z,20.24
2018-07-16T20:18:12.897Z,20.06
2018-07-16T20:20:51.789Z,19.94
2018-07-16T20:23:19.221Z,19.70
2018-07-16T20:25:46.941Z,19.52
2018-07-16T20:28:14.949Z,19.49
2018-07-16T20:30:42.402Z,19.45
2018-07-16T20:33:10.176Z,19.40
2018-07-16T20:35:37.565Z,19.28
2018-07-16T20:38:05.114Z,19.32
2018-07-16T20:40:35.408Z,19.31
2018-07-16T20:43:03.212Z,19.24
2018-07-16T20:45:30.796Z,19.20
2018-07-16T20:47:58.435Z,19.30
2018-07-16T20:50:25.932Z,19.20
2018-07-16T20:52:53.194Z,19.05
2018-07-16T20:55:20.435Z,19.01
2018-07-16T20:57:47.716Z,18.80
2018-07-16T21:00:14.952Z,18.60
2018-07-16T21:02:42.198Z,18.51
2018-07-16T21:05:09.422Z,18.50
2018-07-16T21:07:36.975Z,18.53
2018-07-16T21:10:04.555Z,18.49
2018-07-16T21:12:31.868Z,18.48
2018-07-16T21:14:59.116Z,18.47
2018-07-16T21:17:26.377Z,18.37
2018-07-16T21:19:53.647Z,18.21
2018-07-16T21:22:20.973Z,18.19
2018-07-16T21:24:48.209Z,18.10
2018-07-16T21:27:15.476Z,18.10
2018-07-16T21:29:42.735Z,18.05
2018-07-16T21:32:10.092Z,18.05
2018-07-16T21:34:37.350Z,18.08
2018-07-16T21:37:04.632Z,18.11
2018-07-16T21:39:31.938Z,18.04
2018-07-16T21:41:59.174Z,17.93
2018-07-16T21:44:26.430Z,17.77
2018-07-16T21:46:53.707Z,17.59
2018-07-16T21:49:20.981Z,17.50
2018-07-16T21:51:48.222Z,17.50
2018-07-16T21:54:15.555Z,17.55
2018-07-16T21:56:42.771Z,17.65
2018-07-16T21:59:10.002Z,17.67
2018-07-16T22:01:37.298Z,17.67
2018-07-16T22:04:04.663Z,17.68
2018-07-16T22:06:31.935Z,17.54
2018-07-16T22:08:59.163Z,17.46
2018-07-16T22:11:26.444Z,17.39
2018-07-16T22:13:53.667Z,17.44
2018-07-16T22:16:20.986Z,17.46
2018-07-16T22:18:48.239Z,17.47
2018-07-16T22:21:15.602Z,17.49
2018-07-16T22:23:42.822Z,17.55
2018-07-16T22:26:10.075Z,17.65
2018-07-16T22:28:37.304Z,17.73
2018-07-16T22:31:04.551Z,17.76
2018-07-16T22:33:31.806Z,17.77
2018-07-16T22:35:59.094Z,17.76
2018-07-16T22:38:26.324Z,17.76
2018-07-16T22:40:53.595Z,17.78
2018-07-16T22:43:20.865Z,17.78
2018-07-16T22:45:48.086Z,17.76
2018-07-16T22:48:15.374Z,17.74
2018-07-16T22:50:42.605Z,17.73
2018-07-16T22:53:09.855Z,17.71
2018-07-16T22:55:37.113Z,17.71
2018-07-16T22:58:04.399Z,17.69
2018-07-16T23:00:31.654Z,17.74
2018-07-16T23:02:58.926Z,17.79
2018-07-16T23:05:26.210Z,17.83
2018-07-16T23:07:54.440Z,17.85
2018-07-16T23:10:21.707Z,17.90
2018-07-16T23:12:48.965Z,17.90
2018-07-16T23:15:16.234Z,17.97
2018-07-16T23:17:43.472Z,18.00
2018-07-16T23:20:10.732Z,18.01
2018-07-16T23:22:46.922Z,17.98
2018-07-16T23:25:14.176Z,17.93
2018-07-16T23:27:41.412Z,17.85
2018-07-16T23:30:08.689Z,17.80
2018-07-16T23:32:35.920Z,17.75
2018-07-16T23:35:03.202Z,17.76
2018-07-16T23:37:30.502Z,17.73
2018-07-16T23:39:57.774Z,17.69
2018-07-16T23:42:24.996Z,17.62
2018-07-16T23:44:52.265Z,17.52
2018-07-16T23:47:19.998Z,17.44
2018-07-16T23:49:47.245Z,17.36
2018-07-16T23:52:14.550Z,17.28
2018-07-16T23:54:41.823Z,17.20
2018-07-16T23:57:09.058Z,17.20
2018-07-16T23:59:36.332Z,17.19
